sensor_id;sensor_type;location;lat;lon;timestamp;temperature;humidity
36716;DHT22;22699;51.034;3.730;2023-02-02T00:00:16;10.00;99.90
36716;DHT22;22699;51.034;3.730;2023-02-02T00:02:45;9.80;99.90
36716;DHT22;22699;51.034;3.730;2023-02-02T00:05:11;9.90;99.90
36716;DHT22;22699;51.034;3.730;2023-02-02T00:07:39;9.90;99.90
36716;DHT22;22699;51.034;3.730;2023-02-02T00:10:05;10.00;99.90
36716;DHT22;22699;51.034;3.730;2023-02-02T00:12:33;10.10;99.90
36716;DHT22;22699;51.034;3.730;2023-02-02T00:15:00;10.10;99.90
36716;DHT22;22699;51.034;3.730;2023-02-02T00:17:26;9.90;99.90
36716;DHT22;22699;51.034;3.730;2023-02-02T00:19:51;9.80;99.90
36716;DHT22;22699;51.034;3.730;2023-02-02T00:22:18;9.60;99.90
36716;DHT22;22699;51.034;3.730;2023-02-02T00:24:45;9.70;99.90
36716;DHT22;22699;51.034;3.730;2023-02-02T00:27:10;9.80;99.90
36716;DHT22;22699;51.034;3.730;2023-02-02T00:29:36;9.80;99.90
36716;DHT22;22699;51.034;3.730;2023-02-02T00:32:02;9.80;99.90
36716;DHT22;22699;51.034;3.730;2023-02-02T00:34:30;10.00;99.90
36716;DHT22;22699;51.034;3.730;2023-02-02T00:36:56;10.00;99.90
36716;DHT22;22699;51.034;3.730;2023-02-02T00:39:23;9.90;99.90
36716;DHT22;22699;51.034;3.730;2023-02-02T00:41:53;10.00;99.90
36716;DHT22;22699;51.034;3.730;2023-02-02T00:44:19;9.90;99.90
36716;DHT22;22699;51.034;3.730;2023-02-02T00:47:04;9.80;99.90
36716;DHT22;22699;51.034;3.730;2023-02-02T00:49:31;9.60;99.90
36716;DHT22;22699;51.034;3.730;2023-02-02T00:51:58;9.60;99.90
36716;DHT22;22699;51.034;3.730;2023-02-02T00:54:25;9.80;99.90
36716;DHT22;22699;51.034;3.730;2023-02-02T00:56:50;9.60;99.90
36716;DHT22;22699;51.034;3.730;2023-02-02T00:59:17;9.70;99.90
36716;DHT22;22699;51.034;3.730;2023-02-02T01:01:49;9.60;99.90
36716;DHT22;22699;51.034;3.730;2023-02-02T01:04:18;9.40;99.90
36716;DHT22;22699;51.034;3.730;2023-02-02T01:06:45;9.30;99.90
36716;DHT22;22699;51.034;3.730;2023-02-02T01:09:13;9.40;99.90
36716;DHT22;22699;51.034;3.730;2023-02-02T01:11:40;9.50;99.90
36716;DHT22;22699;51.034;3.730;2023-02-02T01:14:05;9.60;99.90
36716;DHT22;22699;51.034;3.730;2023-02-02T01:16:31;9.70;99.90
36716;DHT22;22699;51.034;3.730;2023-02-02T01:18:57;9.50;99.90
36716;DHT22;22699;51.034;3.730;2023-02-02T01:21:23;9.60;99.90
36716;DHT22;22699;51.034;3.730;2023-02-02T01:23:49;9.80;99.90
36716;DHT22;22699;51.034;3.730;2023-02-02T01:26:15;9.80;99.90
36716;DHT22;22699;51.034;3.730;2023-02-02T01:28:42;9.50;99.90
36716;DHT22;22699;51.034;3.730;2023-02-02T01:31:10;9.60;99.90
36716;DHT22;22699;51.034;3.730;2023-02-02T01:33:39;9.70;99.90
36716;DHT22;22699;51.034;3.730;2023-02-02T01:36:09;9.50;99.90
36716;DHT22;22699;51.034;3.730;2023-02-02T01:38:35;9.80;99.90
36716;DHT22;22699;51.034;3.730;2023-02-02T01:41:01;9.80;99.90
36716;DHT22;22699;51.034;3.730;2023-02-02T01:46:12;9.90;99.90
36716;DHT22;22699;51.034;3.730;2023-02-02T01:48:40;9.80;99.90
36716;DHT22;22699;51.034;3.730;2023-02-02T01:51:13;9.90;99.90
36716;DHT22;22699;51.034;3.730;2023-02-02T01:53:41;9.80;99.90
36716;DHT22;22699;51.034;3.730;2023-02-02T01:56:10;10.00;99.90
36716;DHT22;22699;51.034;3.730;2023-02-02T01:58:38;10.10;99.90
36716;DHT22;22699;51.034;3.730;2023-02-02T02:01:06;9.80;99.90
36716;DHT22;22699;51.034;3.730;2023-02-02T02:03:32;9.80;99.90
36716;DHT22;22699;51.034;3.730;2023-02-02T02:06:09;9.90;99.90
36716;DHT22;22699;51.034;3.730;2023-02-02T02:11:13;9.90;99.90
36716;DHT22;22699;51.034;3.730;2023-02-02T02:13:39;9.90;99.90
36716;DHT22;22699;51.034;3.730;2023-02-02T02:22:07;10.10;99.90
36716;DHT22;22699;51.034;3.730;2023-02-02T02:39:57;10.10;99.90
36716;DHT22;22699;51.034;3.730;2023-02-02T02:42:30;10.10;99.90
36716;DHT22;22699;51.034;3.730;2023-02-02T02:45:00;10.10;99.90
36716;DHT22;22699;51.034;3.730;2023-02-02T02:47:29;9.90;99.90
36716;DHT22;22699;51.034;3.730;2023-02-02T02:49:58;9.50;99.90
36716;DHT22;22699;51.034;3.730;2023-02-02T02:52:25;9.50;99.90
36716;DHT22;22699;51.034;3.730;2023-02-02T02:54:54;9.70;99.90
36716;DHT22;22699;51.034;3.730;2023-02-02T03:00:46;9.60;99.90
36716;DHT22;22699;51.034;3.730;2023-02-02T03:06:20;9.40;99.90
36716;DHT22;22699;51.034;3.730;2023-02-02T03:08:54;9.30;99.90
36716;DHT22;22699;51.034;3.730;2023-02-02T03:11:22;9.40;99.90
36716;DHT22;22699;51.034;3.730;2023-02-02T03:13:48;9.30;99.90
36716;DHT22;22699;51.034;3.730;2023-02-02T03:16:15;9.20;99.90
36716;DHT22;22699;51.034;3.730;2023-02-02T03:18:41;9.30;99.90
36716;DHT22;22699;51.034;3.730;2023-02-02T03:21:10;9.30;99.90
36716;DHT22;22699;51.034;3.730;2023-02-02T03:23:39;9.30;99.90
36716;DHT22;22699;51.034;3.730;2023-02-02T03:26:05;9.30;99.90
36716;DHT22;22699;51.034;3.730;2023-02-02T03:28:31;9.20;99.90
36716;DHT22;22699;51.034;3.730;2023-02-02T03:30:58;9.20;99.90
36716;DHT22;22699;51.034;3.730;2023-02-02T03:33:25;9.20;99.90
36716;DHT22;22699;51.034;3.730;2023-02-02T03:35:51;9.30;99.90
36716;DHT22;22699;51.034;3.730;2023-02-02T03:38:17;9.10;99.90
36716;DHT22;22699;51.034;3.730;2023-02-02T03:40:43;9.30;99.90
36716;DHT22;22699;51.034;3.730;2023-02-02T03:43:08;9.60;99.90
36716;DHT22;22699;51.034;3.730;2023-02-02T03:45:34;9.50;99.90
36716;DHT22;22699;51.034;3.730;2023-02-02T03:48:03;9.50;99.90
36716;DHT22;22699;51.034;3.730;2023-02-02T03:50:28;9.30;99.90
36716;DHT22;22699;51.034;3.730;2023-02-02T03:52:57;9.20;99.90
36716;DHT22;22699;51.034;3.730;2023-02-02T03:55:23;9.20;99.90
36716;DHT22;22699;51.034;3.730;2023-02-02T03:57:48;9.20;99.90
36716;DHT22;22699;51.034;3.730;2023-02-02T04:00:14;9.30;99.90
36716;DHT22;22699;51.034;3.730;2023-02-02T04:02:40;9.50;99.90
36716;DHT22;22699;51.034;3.730;2023-02-02T04:05:06;9.50;99.90
36716;DHT22;22699;51.034;3.730;2023-02-02T04:07:33;9.50;99.90
36716;DHT22;22699;51.034;3.730;2023-02-02T04:09:59;9.50;99.90
36716;DHT22;22699;51.034;3.730;2023-02-02T04:12:25;9.80;99.90
36716;DHT22;22699;51.034;3.730;2023-02-02T04:14:51;9.70;99.90
36716;DHT22;22699;51.034;3.730;2023-02-02T04:17:18;9.60;99.90
36716;DHT22;22699;51.034;3.730;2023-02-02T04:19:43;9.50;99.90
36716;DHT22;22699;51.034;3.730;2023-02-02T04:22:09;9.60;99.90
36716;DHT22;22699;51.034;3.730;2023-02-02T04:24:36;9.20;99.90
36716;DHT22;22699;51.034;3.730;2023-02-02T04:27:01;9.30;99.90
36716;DHT22;22699;51.034;3.730;2023-02-02T04:29:27;9.40;99.90
36716;DHT22;22699;51.034;3.730;2023-02-02T04:31:53;9.30;99.90
36716;DHT22;22699;51.034;3.730;2023-02-02T04:34:19;9.20;99.90
36716;DHT22;22699;51.034;3.730;2023-02-02T04:36:44;9.20;99.90
36716;DHT22;22699;51.034;3.730;2023-02-02T04:39:11;9.50;99.90
36716;DHT22;22699;51.034;3.730;2023-02-02T04:41:38;9.80;99.90
36716;DHT22;22699;51.034;3.730;2023-02-02T04:44:14;9.70;99.90
36716;DHT22;22699;51.034;3.730;2023-02-02T04:46:42;9.70;99.90
36716;DHT22;22699;51.034;3.730;2023-02-02T04:49:09;9.60;99.90
36716;DHT22;22699;51.034;3.730;2023-02-02T04:51:37;9.60;99.90
36716;DHT22;22699;51.034;3.730;2023-02-02T04:54:03;9.60;99.90
36716;DHT22;22699;51.034;3.730;2023-02-02T04:56:28;9.60;99.90
36716;DHT22;22699;51.034;3.730;2023-02-02T04:58:54;9.80;99.90
36716;DHT22;22699;51.034;3.730;2023-02-02T05:01:23;9.70;99.90
36716;DHT22;22699;51.034;3.730;2023-02-02T05:03:49;9.90;99.90
36716;DHT22;22699;51.034;3.730;2023-02-02T05:06:17;9.90;99.90
36716;DHT22;22699;51.034;3.730;2023-02-02T05:08:46;9.70;99.90
36716;DHT22;22699;51.034;3.730;2023-02-02T05:11:15;9.80;99.90
36716;DHT22;22699;51.034;3.730;2023-02-02T05:13:45;9.80;99.90
36716;DHT22;22699;51.034;3.730;2023-02-02T05:16:11;9.90;99.90
36716;DHT22;22699;51.034;3.730;2023-02-02T05:18:37;9.80;99.90
36716;DHT22;22699;51.034;3.730;2023-02-02T05:21:03;9.70;99.90
36716;DHT22;22699;51.034;3.730;2023-02-02T05:23:29;9.50;99.90
36716;DHT22;22699;51.034;3.730;2023-02-02T05:25:55;9.20;99.90
36716;DHT22;22699;51.034;3.730;2023-02-02T05:28:22;9.20;99.90
36716;DHT22;22699;51.034;3.730;2023-02-02T05:30:48;9.40;99.90
36716;DHT22;22699;51.034;3.730;2023-02-02T05:33:14;9.50;99.90
36716;DHT22;22699;51.034;3.730;2023-02-02T05:35:47;9.60;99.90
36716;DHT22;22699;51.034;3.730;2023-02-02T05:38:14;9.50;99.90
36716;DHT22;22699;51.034;3.730;2023-02-02T05:40:41;9.50;99.90
36716;DHT22;22699;51.034;3.730;2023-02-02T05:43:07;9.70;99.90
36716;DHT22;22699;51.034;3.730;2023-02-02T05:45:32;9.50;99.90
36716;DHT22;22699;51.034;3.730;2023-02-02T05:48:02;9.50;99.90
36716;DHT22;22699;51.034;3.730;2023-02-02T05:50:27;9.50;99.90
36716;DHT22;22699;51.034;3.730;2023-02-02T05:52:54;9.60;99.90
36716;DHT22;22699;51.034;3.730;2023-02-02T05:55:21;9.80;99.90
36716;DHT22;22699;51.034;3.730;2023-02-02T05:57:46;9.70;99.90
36716;DHT22;22699;51.034;3.730;2023-02-02T06:00:14;9.60;99.90
36716;DHT22;22699;51.034;3.730;2023-02-02T06:02:40;9.70;99.90
36716;DHT22;22699;51.034;3.730;2023-02-02T06:05:06;9.60;99.90
36716;DHT22;22699;51.034;3.730;2023-02-02T06:07:36;9.60;99.90
36716;DHT22;22699;51.034;3.730;2023-02-02T06:10:03;9.40;99.90
36716;DHT22;22699;51.034;3.730;2023-02-02T06:12:31;9.50;99.90
36716;DHT22;22699;51.034;3.730;2023-02-02T06:14:56;9.50;99.90
36716;DHT22;22699;51.034;3.730;2023-02-02T06:17:23;9.60;99.90
36716;DHT22;22699;51.034;3.730;2023-02-02T06:19:50;9.60;99.90
36716;DHT22;22699;51.034;3.730;2023-02-02T06:22:16;9.50;99.90
36716;DHT22;22699;51.034;3.730;2023-02-02T06:24:43;9.60;99.90
36716;DHT22;22699;51.034;3.730;2023-02-02T06:27:09;9.60;99.90
36716;DHT22;22699;51.034;3.730;2023-02-02T06:29:34;9.40;99.90
36716;DHT22;22699;51.034;3.730;2023-02-02T06:32:01;9.20;99.90
36716;DHT22;22699;51.034;3.730;2023-02-02T06:34:27;9.10;99.90
36716;DHT22;22699;51.034;3.730;2023-02-02T06:36:54;9.10;99.90
36716;DHT22;22699;51.034;3.730;2023-02-02T06:39:25;9.20;99.90
36716;DHT22;22699;51.034;3.730;2023-02-02T06:41:53;9.30;99.90
36716;DHT22;22699;51.034;3.730;2023-02-02T06:44:19;9.40;99.90
36716;DHT22;22699;51.034;3.730;2023-02-02T06:46:47;9.60;99.90
36716;DHT22;22699;51.034;3.730;2023-02-02T06:49:14;9.40;99.90
36716;DHT22;22699;51.034;3.730;2023-02-02T06:51:39;9.50;99.90
36716;DHT22;22699;51.034;3.730;2023-02-02T06:54:05;9.50;99.90
36716;DHT22;22699;51.034;3.730;2023-02-02T06:56:31;9.50;99.90
36716;DHT22;22699;51.034;3.730;2023-02-02T06:58:56;9.50;99.90
36716;DHT22;22699;51.034;3.730;2023-02-02T07:01:22;9.40;99.90
36716;DHT22;22699;51.034;3.730;2023-02-02T07:03:48;9.50;99.90
36716;DHT22;22699;51.034;3.730;2023-02-02T07:06:19;9.70;99.90
36716;DHT22;22699;51.034;3.730;2023-02-02T07:08:47;9.70;99.90
36716;DHT22;22699;51.034;3.730;2023-02-02T07:11:14;9.50;99.90
36716;DHT22;22699;51.034;3.730;2023-02-02T07:13:40;9.30;99.90
36716;DHT22;22699;51.034;3.730;2023-02-02T07:16:07;9.30;99.90
36716;DHT22;22699;51.034;3.730;2023-02-02T07:18:38;9.40;99.90
36716;DHT22;22699;51.034;3.730;2023-02-02T07:21:39;9.40;99.90
36716;DHT22;22699;51.034;3.730;2023-02-02T07:24:33;9.50;99.90
36716;DHT22;22699;51.034;3.730;2023-02-02T07:27:53;9.50;99.90
36716;DHT22;22699;51.034;3.730;2023-02-02T07:30:41;9.50;99.90
36716;DHT22;22699;51.034;3.730;2023-02-02T07:33:08;9.50;99.90
36716;DHT22;22699;51.034;3.730;2023-02-02T07:35:34;9.20;99.90
36716;DHT22;22699;51.034;3.730;2023-02-02T07:38:01;9.30;99.90
36716;DHT22;22699;51.034;3.730;2023-02-02T07:40:27;9.60;99.90
36716;DHT22;22699;51.034;3.730;2023-02-02T07:42:53;9.30;99.90
36716;DHT22;22699;51.034;3.730;2023-02-02T07:45:26;9.30;99.90
36716;DHT22;22699;51.034;3.730;2023-02-02T07:48:04;9.40;99.90
36716;DHT22;22699;51.034;3.730;2023-02-02T07:50:33;9.60;99.90
36716;DHT22;22699;51.034;3.730;2023-02-02T07:53:00;9.60;99.90
36716;DHT22;22699;51.034;3.730;2023-02-02T07:55:28;9.30;99.90
36716;DHT22;22699;51.034;3.730;2023-02-02T07:58:22;9.60;99.90
36716;DHT22;22699;51.034;3.730;2023-02-02T08:00:49;9.70;99.90
36716;DHT22;22699;51.034;3.730;2023-02-02T08:03:15;9.70;99.90
36716;DHT22;22699;51.034;3.730;2023-02-02T08:05:53;9.60;99.90
36716;DHT22;22699;51.034;3.730;2023-02-02T08:08:23;9.70;99.90
36716;DHT22;22699;51.034;3.730;2023-02-02T08:10:54;9.90;99.90
36716;DHT22;22699;51.034;3.730;2023-02-02T08:13:26;10.10;99.90
36716;DHT22;22699;51.034;3.730;2023-02-02T08:16:01;10.30;99.90
36716;DHT22;22699;51.034;3.730;2023-02-02T08:18:29;10.30;99.90
36716;DHT22;22699;51.034;3.730;2023-02-02T08:21:06;10.30;99.90
36716;DHT22;22699;51.034;3.730;2023-02-02T08:23:39;10.00;99.90
36716;DHT22;22699;51.034;3.730;2023-02-02T08:26:31;9.80;99.90
36716;DHT22;22699;51.034;3.730;2023-02-02T08:29:01;9.60;99.90
36716;DHT22;22699;51.034;3.730;2023-02-02T08:31:36;10.10;99.90
36716;DHT22;22699;51.034;3.730;2023-02-02T08:34:11;10.20;99.90
36716;DHT22;22699;51.034;3.730;2023-02-02T08:36:44;10.50;99.90
36716;DHT22;22699;51.034;3.730;2023-02-02T08:39:16;11.30;99.90
36716;DHT22;22699;51.034;3.730;2023-02-02T08:42:18;12.30;99.90
36716;DHT22;22699;51.034;3.730;2023-02-02T08:44:48;13.60;99.90
36716;DHT22;22699;51.034;3.730;2023-02-02T08:47:17;14.80;99.90
36716;DHT22;22699;51.034;3.730;2023-02-02T08:49:55;15.10;99.90
36716;DHT22;22699;51.034;3.730;2023-02-02T08:52:49;15.60;98.80
36716;DHT22;22699;51.034;3.730;2023-02-02T08:55:19;15.60;98.60
36716;DHT22;22699;51.034;3.730;2023-02-02T08:58:05;15.60;98.30
36716;DHT22;22699;51.034;3.730;2023-02-02T09:00:35;16.00;97.70
36716;DHT22;22699;51.034;3.730;2023-02-02T09:03:04;16.50;97.30
36716;DHT22;22699;51.034;3.730;2023-02-02T09:05:36;17.00;95.50
36716;DHT22;22699;51.034;3.730;2023-02-02T09:08:11;17.10;94.70
36716;DHT22;22699;51.034;3.730;2023-02-02T09:10:40;17.50;94.30
36716;DHT22;22699;51.034;3.730;2023-02-02T09:13:06;18.20;93.30
36716;DHT22;22699;51.034;3.730;2023-02-02T09:15:35;18.80;91.50
36716;DHT22;22699;51.034;3.730;2023-02-02T09:18:07;19.60;90.40
36716;DHT22;22699;51.034;3.730;2023-02-02T09:21:00;17.80;91.10
36716;DHT22;22699;51.034;3.730;2023-02-02T09:23:38;17.60;91.60
36716;DHT22;22699;51.034;3.730;2023-02-02T09:26:12;18.30;90.70
36716;DHT22;22699;51.034;3.730;2023-02-02T09:28:44;17.20;91.40
36716;DHT22;22699;51.034;3.730;2023-02-02T09:31:10;16.60;92.60
36716;DHT22;22699;51.034;3.730;2023-02-02T09:33:41;15.30;94.00
36716;DHT22;22699;51.034;3.730;2023-02-02T09:36:17;14.00;95.80
36716;DHT22;22699;51.034;3.730;2023-02-02T09:38:44;13.10;97.10
36716;DHT22;22699;51.034;3.730;2023-02-02T09:44:21;13.00;99.10
36716;DHT22;22699;51.034;3.730;2023-02-02T09:56:05;11.50;99.90
36716;DHT22;22699;51.034;3.730;2023-02-02T09:58:40;11.20;99.90
36716;DHT22;22699;51.034;3.730;2023-02-02T10:01:21;11.40;99.90
36716;DHT22;22699;51.034;3.730;2023-02-02T10:06:39;11.30;99.90
36716;DHT22;22699;51.034;3.730;2023-02-02T10:09:45;11.30;99.90
36716;DHT22;22699;51.034;3.730;2023-02-02T10:12:30;11.40;99.90
36716;DHT22;22699;51.034;3.730;2023-02-02T10:15:11;10.90;99.90
36716;DHT22;22699;51.034;3.730;2023-02-02T10:21:12;10.80;99.90
36716;DHT22;22699;51.034;3.730;2023-02-02T10:23:42;10.70;99.90
36716;DHT22;22699;51.034;3.730;2023-02-02T10:32:27;11.20;99.90
36716;DHT22;22699;51.034;3.730;2023-02-02T10:37:40;11.40;99.90
36716;DHT22;22699;51.034;3.730;2023-02-02T10:46:03;11.20;99.90
36716;DHT22;22699;51.034;3.730;2023-02-02T10:48:34;11.20;99.90
36716;DHT22;22699;51.034;3.730;2023-02-02T10:51:26;11.00;99.90
36716;DHT22;22699;51.034;3.730;2023-02-02T10:53:56;11.20;99.90
36716;DHT22;22699;51.034;3.730;2023-02-02T10:56:50;10.70;99.90
36716;DHT22;22699;51.034;3.730;2023-02-02T10:59:28;11.10;99.90
36716;DHT22;22699;51.034;3.730;2023-02-02T11:01:57;11.10;99.90
36716;DHT22;22699;51.034;3.730;2023-02-02T11:04:30;11.10;99.90
36716;DHT22;22699;51.034;3.730;2023-02-02T11:07:19;10.70;99.90
36716;DHT22;22699;51.034;3.730;2023-02-02T11:09:47;11.00;99.90
36716;DHT22;22699;51.034;3.730;2023-02-02T11:12:40;11.20;99.90
36716;DHT22;22699;51.034;3.730;2023-02-02T11:15:32;11.20;99.90
36716;DHT22;22699;51.034;3.730;2023-02-02T11:18:29;11.50;99.90
36716;DHT22;22699;51.034;3.730;2023-02-02T11:21:40;11.60;99.90
36716;DHT22;22699;51.034;3.730;2023-02-02T12:42:33;12.20;99.90
36716;DHT22;22699;51.034;3.730;2023-02-02T12:48:03;12.50;99.90
36716;DHT22;22699;51.034;3.730;2023-02-02T12:56:38;11.90;99.90
36716;DHT22;22699;51.034;3.730;2023-02-02T13:02:17;12.00;99.90
36716;DHT22;22699;51.034;3.730;2023-02-02T13:07:39;12.20;99.90
36716;DHT22;22699;51.034;3.730;2023-02-02T13:10:30;12.20;99.90
36716;DHT22;22699;51.034;3.730;2023-02-02T13:13:11;12.20;99.90
36716;DHT22;22699;51.034;3.730;2023-02-02T13:15:41;12.30;99.90
36716;DHT22;22699;51.034;3.730;2023-02-02T13:18:38;12.30;99.90
36716;DHT22;22699;51.034;3.730;2023-02-02T13:21:11;12.20;99.90
36716;DHT22;22699;51.034;3.730;2023-02-02T13:23:42;12.40;99.90
36716;DHT22;22699;51.034;3.730;2023-02-02T13:31:21;12.50;99.90
36716;DHT22;22699;51.034;3.730;2023-02-02T13:33:55;12.50;99.90
36716;DHT22;22699;51.034;3.730;2023-02-02T13:36:29;12.60;99.90
36716;DHT22;22699;51.034;3.730;2023-02-02T13:39:02;12.80;99.90
36716;DHT22;22699;51.034;3.730;2023-02-02T13:41:35;12.80;99.90
36716;DHT22;22699;51.034;3.730;2023-02-02T13:44:07;12.90;99.90
36716;DHT22;22699;51.034;3.730;2023-02-02T13:47:10;12.70;99.90
36716;DHT22;22699;51.034;3.730;2023-02-02T13:49:43;12.60;99.90
36716;DHT22;22699;51.034;3.730;2023-02-02T13:52:50;12.40;99.90
36716;DHT22;22699;51.034;3.730;2023-02-02T14:00:43;12.40;99.90
36716;DHT22;22699;51.034;3.730;2023-02-02T14:03:29;12.70;99.90
36716;DHT22;22699;51.034;3.730;2023-02-02T14:06:05;12.70;99.90
36716;DHT22;22699;51.034;3.730;2023-02-02T14:08:32;12.70;99.90
36716;DHT22;22699;51.034;3.730;2023-02-02T14:11:00;12.80;99.90
36716;DHT22;22699;51.034;3.730;2023-02-02T14:13:47;12.70;99.90
36716;DHT22;22699;51.034;3.730;2023-02-02T14:16:52;12.40;99.90
36716;DHT22;22699;51.034;3.730;2023-02-02T14:34:56;12.00;99.90
36716;DHT22;22699;51.034;3.730;2023-02-02T14:49:04;11.70;99.90
36716;DHT22;22699;51.034;3.730;2023-02-02T14:51:33;11.90;99.90
36716;DHT22;22699;51.034;3.730;2023-02-02T14:54:27;12.10;99.90
36716;DHT22;22699;51.034;3.730;2023-02-02T14:57:42;12.20;99.90
36716;DHT22;22699;51.034;3.730;2023-02-02T14:59:45;12.40;99.90
36716;DHT22;22699;51.034;3.730;2023-02-02T15:02:17;12.20;99.90
36716;DHT22;22699;51.034;3.730;2023-02-02T15:04:43;12.10;99.90
36716;DHT22;22699;51.034;3.730;2023-02-02T15:09:53;11.80;99.90
36716;DHT22;22699;51.034;3.730;2023-02-02T15:12:32;11.80;99.90
36716;DHT22;22699;51.034;3.730;2023-02-02T15:20:26;11.40;99.90
36716;DHT22;22699;51.034;3.730;2023-02-02T15:25:44;11.50;99.90
36716;DHT22;22699;51.034;3.730;2023-02-02T15:28:25;11.60;99.90
36716;DHT22;22699;51.034;3.730;2023-02-02T15:33:44;11.60;99.90
36716;DHT22;22699;51.034;3.730;2023-02-02T15:36:31;11.30;99.90
36716;DHT22;22699;51.034;3.730;2023-02-02T15:39:00;11.20;99.90
36716;DHT22;22699;51.034;3.730;2023-02-02T15:41:31;11.30;99.90
36716;DHT22;22699;51.034;3.730;2023-02-02T15:43:57;11.40;99.90
36716;DHT22;22699;51.034;3.730;2023-02-02T15:46:34;11.60;99.90
36716;DHT22;22699;51.034;3.730;2023-02-02T15:51:52;11.40;99.90
36716;DHT22;22699;51.034;3.730;2023-02-02T15:54:30;11.20;99.90
36716;DHT22;22699;51.034;3.730;2023-02-02T15:57:01;11.10;99.90
36716;DHT22;22699;51.034;3.730;2023-02-02T15:59:27;11.40;99.90
36716;DHT22;22699;51.034;3.730;2023-02-02T16:04:37;11.30;99.90
36716;DHT22;22699;51.034;3.730;2023-02-02T16:07:05;11.10;99.90
36716;DHT22;22699;51.034;3.730;2023-02-02T16:09:34;11.00;99.90
36716;DHT22;22699;51.034;3.730;2023-02-02T16:12:02;10.90;99.90
36716;DHT22;22699;51.034;3.730;2023-02-02T16:14:30;10.80;99.90
36716;DHT22;22699;51.034;3.730;2023-02-02T16:17:10;10.80;99.90
36716;DHT22;22699;51.034;3.730;2023-02-02T16:19:37;10.90;99.90
36716;DHT22;22699;51.034;3.730;2023-02-02T16:22:08;10.90;99.90
36716;DHT22;22699;51.034;3.730;2023-02-02T16:24:43;10.80;99.90
36716;DHT22;22699;51.034;3.730;2023-02-02T16:27:24;10.60;99.90
36716;DHT22;22699;51.034;3.730;2023-02-02T16:29:56;10.60;99.90
36716;DHT22;22699;51.034;3.730;2023-02-02T16:34:54;10.60;99.90
36716;DHT22;22699;51.034;3.730;2023-02-02T16:37:23;10.40;99.90
36716;DHT22;22699;51.034;3.730;2023-02-02T16:39:56;10.50;99.90
36716;DHT22;22699;51.034;3.730;2023-02-02T16:44:48;10.40;99.90
36716;DHT22;22699;51.034;3.730;2023-02-02T16:52:33;10.40;99.90
36716;DHT22;22699;51.034;3.730;2023-02-02T16:54:59;10.30;99.90
36716;DHT22;22699;51.034;3.730;2023-02-02T16:57:28;10.30;99.90
36716;DHT22;22699;51.034;3.730;2023-02-02T16:59:59;10.40;99.90
36716;DHT22;22699;51.034;3.730;2023-02-02T17:02:31;10.40;99.90
36716;DHT22;22699;51.034;3.730;2023-02-02T17:07:27;10.80;99.90
36716;DHT22;22699;51.034;3.730;2023-02-02T17:10:20;10.60;99.90
36716;DHT22;22699;51.034;3.730;2023-02-02T17:12:47;10.40;99.90
36716;DHT22;22699;51.034;3.730;2023-02-02T17:15:25;10.30;99.90
36716;DHT22;22699;51.034;3.730;2023-02-02T17:17:53;10.20;99.90
36716;DHT22;22699;51.034;3.730;2023-02-02T17:20:19;10.20;99.90
36716;DHT22;22699;51.034;3.730;2023-02-02T17:22:50;10.20;99.90
36716;DHT22;22699;51.034;3.730;2023-02-02T17:25:23;10.20;99.90
36716;DHT22;22699;51.034;3.730;2023-02-02T17:27:51;10.20;99.90
36716;DHT22;22699;51.034;3.730;2023-02-02T17:30:18;10.10;99.90
36716;DHT22;22699;51.034;3.730;2023-02-02T17:32:44;10.10;99.90
36716;DHT22;22699;51.034;3.730;2023-02-02T17:35:23;10.00;99.90
36716;DHT22;22699;51.034;3.730;2023-02-02T17:37:49;10.10;99.90
36716;DHT22;22699;51.034;3.730;2023-02-02T17:40:18;10.10;99.90
36716;DHT22;22699;51.034;3.730;2023-02-02T17:42:47;10.10;99.90
36716;DHT22;22699;51.034;3.730;2023-02-02T17:45:22;10.00;99.90
36716;DHT22;22699;51.034;3.730;2023-02-02T17:47:49;9.90;99.90
36716;DHT22;22699;51.034;3.730;2023-02-02T17:50:16;10.00;99.90
36716;DHT22;22699;51.034;3.730;2023-02-02T17:52:41;9.90;99.90
36716;DHT22;22699;51.034;3.730;2023-02-02T17:55:22;9.90;99.90
36716;DHT22;22699;51.034;3.730;2023-02-02T17:57:48;10.00;99.90
36716;DHT22;22699;51.034;3.730;2023-02-02T18:00:17;9.90;99.90
36716;DHT22;22699;51.034;3.730;2023-02-02T18:02:45;9.90;99.90
36716;DHT22;22699;51.034;3.730;2023-02-02T18:05:11;10.00;99.90
36716;DHT22;22699;51.034;3.730;2023-02-02T18:07:38;9.90;99.90
36716;DHT22;22699;51.034;3.730;2023-02-02T18:10:06;9.90;99.90
36716;DHT22;22699;51.034;3.730;2023-02-02T18:12:32;10.00;99.90
36716;DHT22;22699;51.034;3.730;2023-02-02T18:15:01;10.10;99.90
36716;DHT22;22699;51.034;3.730;2023-02-02T18:17:27;10.00;99.90
36716;DHT22;22699;51.034;3.730;2023-02-02T18:19:53;10.00;99.90
36716;DHT22;22699;51.034;3.730;2023-02-02T18:22:20;9.90;99.90
36716;DHT22;22699;51.034;3.730;2023-02-02T18:24:46;10.00;99.90
36716;DHT22;22699;51.034;3.730;2023-02-02T18:27:13;9.80;99.90
36716;DHT22;22699;51.034;3.730;2023-02-02T18:29:41;9.90;99.90
36716;DHT22;22699;51.034;3.730;2023-02-02T18:32:07;10.00;99.90
36716;DHT22;22699;51.034;3.730;2023-02-02T18:34:37;9.90;99.90
36716;DHT22;22699;51.034;3.730;2023-02-02T18:37:02;10.00;99.90
36716;DHT22;22699;51.034;3.730;2023-02-02T18:39:29;10.10;99.90
36716;DHT22;22699;51.034;3.730;2023-02-02T18:41:55;10.00;99.90
36716;DHT22;22699;51.034;3.730;2023-02-02T18:44:21;9.80;99.90
36716;DHT22;22699;51.034;3.730;2023-02-02T18:46:49;9.90;99.90
36716;DHT22;22699;51.034;3.730;2023-02-02T18:49:16;9.90;99.90
36716;DHT22;22699;51.034;3.730;2023-02-02T18:51:42;10.00;99.90
36716;DHT22;22699;51.034;3.730;2023-02-02T18:54:11;10.00;99.90
36716;DHT22;22699;51.034;3.730;2023-02-02T18:56:37;10.00;99.90
36716;DHT22;22699;51.034;3.730;2023-02-02T18:59:02;10.00;99.90
36716;DHT22;22699;51.034;3.730;2023-02-02T19:01:37;10.00;99.90
36716;DHT22;22699;51.034;3.730;2023-02-02T19:04:03;9.90;99.90
36716;DHT22;22699;51.034;3.730;2023-02-02T19:06:29;10.10;99.90
36716;DHT22;22699;51.034;3.730;2023-02-02T19:09:14;10.20;99.90
36716;DHT22;22699;51.034;3.730;2023-02-02T19:11:50;10.20;99.90
36716;DHT22;22699;51.034;3.730;2023-02-02T19:14:33;10.20;99.90
36716;DHT22;22699;51.034;3.730;2023-02-02T19:17:24;10.10;99.90
36716;DHT22;22699;51.034;3.730;2023-02-02T19:19:53;10.10;99.90
36716;DHT22;22699;51.034;3.730;2023-02-02T19:22:23;10.10;99.90
36716;DHT22;22699;51.034;3.730;2023-02-02T19:24:52;9.90;99.90
36716;DHT22;22699;51.034;3.730;2023-02-02T19:27:23;10.00;99.90
36716;DHT22;22699;51.034;3.730;2023-02-02T19:29:53;10.10;99.90
36716;DHT22;22699;51.034;3.730;2023-02-02T19:32:22;10.10;99.90
36716;DHT22;22699;51.034;3.730;2023-02-02T19:34:54;10.10;99.90
36716;DHT22;22699;51.034;3.730;2023-02-02T19:37:23;10.10;99.90
36716;DHT22;22699;51.034;3.730;2023-02-02T19:39:53;10.10;99.90
36716;DHT22;22699;51.034;3.730;2023-02-02T19:42:23;10.10;99.90
36716;DHT22;22699;51.034;3.730;2023-02-02T19:44:50;9.80;99.90
36716;DHT22;22699;51.034;3.730;2023-02-02T19:47:32;10.20;99.90
36716;DHT22;22699;51.034;3.730;2023-02-02T19:50:18;10.10;99.90